Time;durP1;ratioP1;P1;durP2;ratioP2;P2;SDS_P1;SDS_P2;PMS_P1;PMS_P2;Temp;Humidity;BMP_temperature;BMP_pressure;BME280_temperature;BME280_humidity;BME280_pressure;Samples;Min_cycle;Max_cycle;Signal;HPM_P1;HPM_P2
2022/05/03 00:00:21;;;;;;;13.75;10.38;;;;;;;6.21;84.97;94434.09;1681603;85;21000;-52
2022/05/03 00:03:24;;;;;;;19.05;11.85;;;;;;;6.15;85.11;94437.17;1681781;85;21058;-51
2022/05/03 00:06:14;;;;;;;17.15;12.50;;;;;;;6.09;85.19;94444.32;1681800;85;22154;-49
2022/05/03 00:08:48;;;;;;;18.23;13.05;;;;;;;6.00;85.31;94440.06;1681493;85;21059;-49
2022/05/03 00:11:33;;;;;;;20.15;13.35;;;;;;;5.92;85.47;94442.77;1680266;85;20940;-49
2022/05/03 00:14:09;;;;;;;18.37;12.13;;;;;;;5.87;85.64;94444.06;1682023;85;21003;-51
2022/05/03 00:16:35;;;;;;;17.52;11.50;;;;;;;5.85;85.67;94442.94;1682058;85;20972;-50
2022/05/03 00:19:05;;;;;;;20.45;11.75;;;;;;;5.84;85.77;94446.86;1656505;85;21221;-50
2022/05/03 00:21:35;;;;;;;20.68;12.55;;;;;;;5.81;85.87;94443.61;1682038;85;21011;-50
2022/05/03 00:24:02;;;;;;;26.23;16.62;;;;;;;5.78;86.01;94447.17;1681484;85;21001;-50
2022/05/03 00:26:29;;;;;;;31.12;17.27;;;;;;;5.69;86.03;94445.59;1681821;85;21011;-51
2022/05/03 00:28:57;;;;;;;34.55;18.98;;;;;;;5.59;86.07;94441.91;1633090;85;20956;-49
2022/05/03 00:31:24;;;;;;;30.95;19.05;;;;;;;5.55;86.23;94439.85;1681716;85;21262;-51
2022/05/03 00:33:54;;;;;;;35.95;20.60;;;;;;;5.55;86.52;94449.98;1681795;85;20987;-50
2022/05/03 00:36:22;;;;;;;42.75;22.50;;;;;;;5.55;86.82;94443.95;1681541;85;21000;-49
2022/05/03 00:38:50;;;;;;;31.50;17.95;;;;;;;5.56;86.99;94444.70;1681968;85;20996;-50
2022/05/03 00:41:40;;;;;;;26.80;15.30;;;;;;;5.55;86.83;94440.44;1681868;85;20996;-50
2022/05/03 00:47:07;;;;;;;23.05;14.98;;;;;;;5.52;86.84;94445.37;1681849;85;21046;-49
2022/05/03 00:49:46;;;;;;;26.07;17.55;;;;;;;5.57;86.99;94449.75;1679497;85;21623;-49
2022/05/03 00:52:55;;;;;;;29.07;18.98;;;;;;;5.61;86.96;94450.44;1668530;86;21056;-50
2022/05/03 00:55:30;;;;;;;29.05;17.02;;;;;;;5.60;86.77;94450.88;1670548;86;21532;-50
2022/05/03 00:58:38;;;;;;;33.50;17.27;;;;;;;5.54;86.68;94442.41;1670053;86;21099;-49
2022/05/03 01:01:09;;;;;;;27.07;15.48;;;;;;;5.55;86.62;94452.71;1670758;86;20982;-50
2022/05/03 01:03:48;;;;;;;16.23;12.15;;;;;;;5.52;86.13;94452.98;1670358;86;21038;-50
2022/05/03 01:06:27;;;;;;;16.25;11.73;;;;;;;5.50;85.98;94451.85;1669576;86;20997;-49
2022/05/03 01:08:59;;;;;;;19.85;13.30;;;;;;;5.45;85.96;94450.38;1670398;86;21088;-49
2022/05/03 01:11:34;;;;;;;33.65;19.42;;;;;;;5.43;86.08;94447.92;1670349;86;21887;-50
2022/05/03 01:14:33;;;;;;;30.27;17.77;;;;;;;5.43;86.21;94449.28;1670264;86;21100;-50
2022/05/03 01:17:08;;;;;;;30.17;16.42;;;;;;;5.42;86.39;94450.47;1670479;86;21089;-49
2022/05/03 01:20:06;;;;;;;28.60;16.23;;;;;;;5.38;86.51;94447.06;1670387;86;20997;-50
2022/05/03 01:22:59;;;;;;;22.65;13.60;;;;;;;5.38;86.63;94448.42;1670513;86;21481;-51
2022/05/03 01:25:46;;;;;;;20.48;14.90;;;;;;;5.31;86.66;94452.64;1670319;86;21261;-49
2022/05/03 01:28:57;;;;;;;25.92;15.23;;;;;;;5.21;86.82;94440.58;1670367;86;21758;-50
2022/05/03 01:31:24;;;;;;;24.50;13.98;;;;;;;5.18;87.18;94450.36;1670192;86;20981;-51
2022/05/03 01:33:51;;;;;;;20.20;13.22;;;;;;;5.19;87.19;94445.08;1670551;86;21116;-50
2022/05/03 01:36:26;;;;;;;20.35;13.85;;;;;;;5.17;87.13;94450.19;1670479;86;20970;-49
2022/05/03 01:39:03;;;;;;;17.45;13.00;;;;;;;5.13;87.12;94446.02;1670683;85;21226;-49
2022/05/03 01:41:58;;;;;;;19.17;11.90;;;;;;;5.06;87.30;94448.86;1670360;86;21041;-50
2022/05/03 01:44:59;;;;;;;17.12;11.00;;;;;;;5.05;87.52;94448.69;1670207;86;21029;-49
2022/05/03 01:47:59;;;;;;;16.20;10.13;;;;;;;5.05;87.52;94445.37;1642501;86;21013;-49
2022/05/03 01:50:39;;;;;;;14.13;10.82;;;;;;;5.06;87.67;94446.92;1674850;84;21470;-49
2022/05/03 01:53:35;;;;;;;18.95;12.30;;;;;;;5.10;87.79;94448.97;1682045;85;21154;-49
2022/05/03 01:56:32;;;;;;;21.00;14.13;;;;;;;5.12;87.83;94446.59;1682093;85;21494;-51
2022/05/03 01:59:38;;;;;;;28.32;15.45;;;;;;;5.14;87.69;94448.30;1681989;85;20995;-49
2022/05/03 02:02:28;;;;;;;27.27;14.73;;;;;;;5.13;87.53;94448.73;1681672;85;20951;-50
2022/05/03 02:05:07;;;;;;;18.67;12.30;;;;;;;5.07;87.34;94441.64;1681826;85;20944;-50
2022/05/03 02:07:57;;;;;;;31.77;18.07;;;;;;;5.04;87.42;94437.61;1682112;85;21114;-50
2022/05/03 02:10:55;;;;;;;30.45;17.50;;;;;;;5.00;87.31;94447.20;1681713;85;21003;-49
2022/05/03 02:16:51;;;;;;;21.45;15.10;;;;;;;4.91;87.51;94440.77;1682035;85;21011;-50
2022/05/03 02:19:53;;;;;;;19.02;13.18;;;;;;;4.86;87.42;94439.32;1682162;85;20963;-50
2022/05/03 02:23:00;;;;;;;24.82;14.78;;;;;;;4.81;87.79;94445.84;1681398;85;22080;-50
2022/05/03 02:25:38;;;;;;;24.37;15.98;;;;;;;4.81;88.00;94452.05;1681849;85;20983;-50
2022/05/03 02:28:32;;;;;;;26.37;19.07;;;;;;;4.73;87.67;94452.02;1682326;85;21071;-51
2022/05/03 02:31:02;;;;;;;22.60;15.55;;;;;;;4.66;87.62;94454.88;1680969;85;21035;-51
2022/05/03 02:33:34;;;;;;;27.30;16.02;;;;;;;4.61;87.55;94448.52;1682346;85;21039;-50
2022/05/03 02:36:01;;;;;;;22.55;15.48;;;;;;;4.59;87.74;94451.50;1681933;85;21905;-50
2022/05/03 02:38:42;;;;;;;19.95;14.00;;;;;;;4.58;87.89;94447.99;1681965;85;21091;-51
2022/05/03 02:41:08;;;;;;;20.10;13.13;;;;;;;4.57;87.95;94453.27;1682152;85;21019;-49
2022/05/03 02:43:36;;;;;;;19.98;13.03;;;;;;;4.56;87.99;94449.00;1681840;85;21003;-50
2022/05/03 02:46:11;;;;;;;14.15;12.28;;;;;;;4.58;88.08;94451.33;1681794;85;20930;-50
2022/05/03 02:48:45;;;;;;;17.52;12.50;;;;;;;4.62;88.22;94454.14;1681915;85;21133;-49
2022/05/03 02:51:11;;;;;;;18.25;12.18;;;;;;;4.69;88.50;94447.22;1680001;84;21059;-50
2022/05/03 02:53:57;;;;;;;18.02;11.78;;;;;;;4.77;88.58;94449.23;1682011;85;21089;-50
2022/05/03 02:56:32;;;;;;;17.50;12.07;;;;;;;4.79;88.23;94448.22;1682142;85;21428;-50
2022/05/03 02:59:16;;;;;;;16.42;11.12;;;;;;;4.74;87.99;94444.01;1681999;85;21082;-50
2022/05/03 03:01:51;;;;;;;19.87;10.40;;;;;;;4.78;88.21;94458.34;1681833;85;21799;-49
2022/05/03 03:04:42;;;;;;;11.80;9.13;;;;;;;4.81;87.96;94447.20;1681555;85;21042;-50
2022/05/03 03:07:08;;;;;;;15.88;10.95;;;;;;;4.82;87.81;94454.19;1681991;85;21511;-51
2022/05/03 03:09:50;;;;;;;11.12;9.95;;;;;;;4.81;87.68;94450.69;1681751;85;21003;-49
2022/05/03 03:12:43;;;;;;;18.05;12.43;;;;;;;4.77;87.34;94451.95;1681985;85;20995;-50
2022/05/03 03:15:11;;;;;;;15.83;10.70;;;;;;;4.67;87.22;94455.05;1682108;85;21272;-51
2022/05/03 03:17:43;;;;;;;17.95;10.25;;;;;;;4.60;87.36;94451.68;1656827;85;20949;-51
2022/05/03 03:20:13;;;;;;;19.60;11.75;;;;;;;4.58;87.37;94456.16;1681930;85;21047;-50
2022/05/03 03:22:43;;;;;;;21.52;12.40;;;;;;;4.50;87.49;94456.70;1681651;85;21032;-51
2022/05/03 03:25:17;;;;;;;16.90;12.15;;;;;;;4.44;87.39;94456.41;1681821;84;20992;-52
2022/05/03 03:27:51;;;;;;;18.92;12.23;;;;;;;4.35;87.54;94455.39;1682096;84;20921;-51
2022/05/03 03:30:18;;;;;;;11.13;9.90;;;;;;;4.31;87.70;94453.33;1682130;85;21393;-50
2022/05/03 03:32:49;;;;;;;15.75;10.90;;;;;;;4.32;87.92;94460.31;1681774;85;20988;-50
2022/05/03 03:35:16;;;;;;;11.90;9.53;;;;;;;4.36;88.11;94459.08;1681935;85;21431;-50
2022/05/03 03:37:46;;;;;;;12.98;9.28;;;;;;;4.43;88.29;94453.50;1681868;85;20943;-50
2022/05/03 03:40:16;;;;;;;12.75;8.55;;;;;;;4.48;88.22;94458.50;1681884;85;21143;-50
2022/05/03 03:42:43;;;;;;;23.38;13.22;;;;;;;4.53;88.19;94459.37;1681645;85;21004;-51
2022/05/03 03:45:12;;;;;;;19.45;12.93;;;;;;;4.57;88.11;94462.80;1681747;85;21052;-51
2022/05/03 03:47:39;;;;;;;17.32;14.03;;;;;;;4.61;88.01;94456.69;1681927;85;21047;-50
2022/05/03 03:50:08;;;;;;;19.55;13.85;;;;;;;4.65;88.05;94459.36;1681820;85;20948;-49
2022/05/03 03:52:35;;;;;;;21.97;15.03;;;;;;;4.70;88.07;94465.11;1682232;85;22093;-49
2022/05/03 03:55:03;;;;;;;32.05;15.95;;;;;;;4.76;88.11;94462.07;1682129;85;21125;-50
2022/05/03 03:57:30;;;;;;;29.10;15.90;;;;;;;4.81;87.99;94463.55;1682258;84;21054;-50
2022/05/03 03:59:59;;;;;;;27.98;16.85;;;;;;;4.80;87.70;94466.86;1682463;85;21495;-51
2022/05/03 04:02:26;;;;;;;23.35;14.30;;;;;;;4.81;87.67;94466.28;1682283;85;20970;-50
2022/05/03 04:04:53;;;;;;;31.50;18.67;;;;;;;4.82;87.68;94467.20;1682159;85;21245;-49
2022/05/03 04:07:19;;;;;;;25.85;18.80;;;;;;;4.83;87.87;94466.02;1682590;85;21482;-50
2022/05/03 04:09:47;;;;;;;27.85;17.25;;;;;;;4.86;87.83;94472.02;1682356;85;21407;-52
2022/05/03 04:12:14;;;;;;;20.20;14.47;;;;;;;4.91;87.84;94467.45;1682142;85;21069;-50
2022/05/03 04:14:41;;;;;;;23.45;14.68;;;;;;;4.95;87.69;94460.58;1659008;85;21037;-52
2022/05/03 04:17:08;;;;;;;20.20;15.80;;;;;;;5.02;87.74;94461.21;1682432;85;21153;-51
2022/05/03 04:19:35;;;;;;;25.08;16.02;;;;;;;5.13;88.03;94465.09;1682251;85;21494;-50
2022/05/03 04:22:12;;;;;;;27.20;16.23;;;;;;;5.27;88.20;94458.77;1682230;85;21065;-50
2022/05/03 04:24:30;;;;;;;26.73;15.75;;;;;;;5.45;88.22;94462.66;1680648;84;21026;-51
2022/05/03 04:26:57;;;;;;;23.75;14.18;;;;;;;5.62;88.08;94458.79;1682571;85;21490;-52
2022/05/03 04:29:23;;;;;;;25.62;14.23;;;;;;;5.79;87.53;94455.55;1682153;85;21165;-52
2022/05/03 04:31:50;;;;;;;19.82;13.35;;;;;;;5.90;86.82;94458.80;1682215;85;21490;-52
2022/05/03 04:34:17;;;;;;;22.80;14.05;;;;;;;5.98;86.12;94457.47;1682451;85;21026;-51
2022/05/03 04:36:43;;;;;;;17.57;13.95;;;;;;;5.98;85.78;94452.76;1682634;85;21439;-50
2022/05/03 04:39:10;;;;;;;21.95;14.18;;;;;;;6.02;85.74;94458.15;1682315;85;21037;-54
2022/05/03 04:41:37;;;;;;;17.70;14.10;;;;;;;6.07;85.56;94456.27;1682468;85;21155;-57
2022/05/03 04:44:05;;;;;;;19.20;14.60;;;;;;;6.16;85.63;94456.47;1682246;85;20962;-49
2022/05/03 04:46:31;;;;;;;24.75;13.68;;;;;;;6.30;85.46;94452.04;1682206;85;21022;-51
2022/05/03 04:48:58;;;;;;;16.90;13.05;;;;;;;6.46;85.70;94454.74;1682238;85;21305;-53
2022/05/03 04:51:25;;;;;;;18.30;12.82;;;;;;;6.66;85.40;94451.34;1681927;85;21030;-53
2022/05/03 04:53:52;;;;;;;18.02;12.82;;;;;;;6.85;84.96;94449.09;1681830;85;21076;-52
2022/05/03 04:56:23;;;;;;;22.87;15.83;;;;;;;7.02;84.27;94446.46;1681794;85;21035;-54
2022/05/03 04:58:55;;;;;;;19.95;14.78;;;;;;;7.15;83.71;94439.25;1681982;85;21495;-52
2022/05/03 05:01:20;;;;;;;18.15;12.70;;;;;;;7.32;83.27;94429.78;1682024;85;21495;-51
2022/05/03 05:03:47;;;;;;;17.00;11.93;;;;;;;7.52;82.55;94429.02;1681810;85;20945;-52
2022/05/03 05:06:14;;;;;;;20.52;11.80;;;;;;;7.72;81.75;94437.05;1681643;85;21147;-50
2022/05/03 05:08:42;;;;;;;15.80;11.97;;;;;;;7.91;81.20;94431.98;1681770;85;21003;-51
2022/05/03 05:11:09;;;;;;;20.15;13.03;;;;;;;8.01;80.84;94429.50;1681677;85;21520;-52
2022/05/03 05:13:37;;;;;;;24.70;15.13;;;;;;;8.11;79.97;94422.94;1681853;85;20952;-51
2022/05/03 05:16:05;;;;;;;40.12;14.68;;;;;;;8.15;79.57;94422.22;1681973;85;21634;-52
2022/05/03 05:18:33;;;;;;;26.35;15.70;;;;;;;8.25;79.12;94421.16;1681880;85;21783;-52
2022/05/03 05:21:00;;;;;;;22.60;15.68;;;;;;;8.33;78.65;94423.23;1681767;85;20988;-53
2022/05/03 05:23:26;;;;;;;20.12;14.78;;;;;;;8.41;78.05;94417.68;1681679;85;20947;-53
2022/05/03 05:25:54;;;;;;;20.50;13.48;;;;;;;8.49;77.54;94416.26;1681627;85;20957;-53
2022/05/03 05:28:22;;;;;;;18.35;12.82;;;;;;;8.62;76.87;94417.59;1681817;85;21498;-51
2022/05/03 05:30:51;;;;;;;25.17;11.95;;;;;;;8.75;76.51;94410.88;1681704;85;21147;-52
2022/05/03 05:33:20;;;;;;;18.25;10.95;;;;;;;8.95;76.12;94414.09;1681371;85;21035;-53
2022/05/03 05:35:48;;;;;;;15.03;9.45;;;;;;;9.14;75.83;94413.03;1672977;85;21019;-53
2022/05/03 05:38:17;;;;;;;46.35;12.40;;;;;;;9.35;75.29;94402.06;1652878;86;20967;-52
2022/05/03 05:40:46;;;;;;;12.45;9.98;;;;;;;9.54;74.44;94407.06;1672953;85;20960;-53
2022/05/03 05:43:14;;;;;;;16.87;9.90;;;;;;;9.69;74.25;94409.44;1681545;85;22114;-52
2022/05/03 05:45:41;;;;;;;16.23;10.40;;;;;;;9.86;73.35;94406.05;1681353;85;21039;-55
2022/05/03 05:48:09;;;;;;;17.15;10.15;;;;;;;9.91;72.37;94401.92;1680652;85;20980;-53
2022/05/03 05:50:36;;;;;;;9.88;8.60;;;;;;;9.92;71.73;94402.08;1656813;84;21114;-55
2022/05/03 05:55:51;;;;;;;9.45;7.80;;;;;;;10.03;71.65;94398.36;1676748;83;21292;-54
2022/05/03 05:58:17;;;;;;;8.85;6.62;;;;;;;10.18;71.38;94392.47;1684938;83;20991;-54
2022/05/03 06:00:44;;;;;;;8.98;7.47;;;;;;;10.36;70.99;94396.66;1671270;83;21042;-55
2022/05/03 06:03:11;;;;;;;14.07;7.70;;;;;;;10.57;70.83;94393.04;1671157;85;21054;-53
2022/05/03 06:05:38;;;;;;;14.63;8.48;;;;;;;10.77;69.78;94392.16;1681010;83;21739;-55
2022/05/03 06:08:07;;;;;;;8.20;7.00;;;;;;;10.88;68.83;94393.08;1675637;83;21196;-56
2022/05/03 06:10:33;;;;;;;11.08;7.55;;;;;;;10.93;68.09;94389.12;1681899;83;21010;-55
2022/05/03 06:13:02;;;;;;;11.73;6.83;;;;;;;10.97;67.78;94391.73;1676032;83;21082;-55
2022/05/03 06:15:30;;;;;;;13.88;6.15;;;;;;;11.05;67.28;94390.19;1675590;83;21078;-52
2022/05/03 06:17:56;;;;;;;8.35;7.05;;;;;;;11.15;66.74;94391.73;1676481;83;21002;-55
2022/05/03 06:20:23;;;;;;;9.75;6.83;;;;;;;11.26;66.36;94381.79;1679274;83;21590;-56
2022/05/03 06:22:52;;;;;;;17.25;9.00;;;;;;;11.34;66.03;94385.75;1681867;83;21050;-56
2022/05/03 06:25:19;;;;;;;13.00;8.55;;;;;;;11.39;65.74;94385.13;1682559;83;21078;-53
2022/05/03 06:27:46;;;;;;;11.35;7.37;;;;;;;11.43;65.56;94384.97;1678066;83;21086;-54
2022/05/03 06:30:14;;;;;;;9.75;7.10;;;;;;;11.54;65.23;94381.89;1680648;83;21010;-56
2022/05/03 06:32:43;;;;;;;12.80;8.23;;;;;;;11.77;65.25;94377.16;1678647;85;21260;-53
2022/05/03 06:35:12;;;;;;;10.93;7.72;;;;;;;12.01;64.68;94370.32;1679379;83;20988;-56
2022/05/03 06:37:41;;;;;;;8.60;7.00;;;;;;;12.25;64.40;94373.29;1679676;83;21128;-55
2022/05/03 06:40:09;;;;;;;13.55;7.15;;;;;;;12.45;63.95;94375.51;1672467;83;20983;-55
2022/05/03 06:42:40;;;;;;;9.63;6.47;;;;;;;12.64;63.10;94371.56;1680913;83;21964;-54
2022/05/03 06:45:09;;;;;;;12.93;7.35;;;;;;;12.81;62.82;94365.00;1682666;83;21106;-55
2022/05/03 06:47:36;;;;;;;9.90;6.85;;;;;;;13.05;62.64;94363.05;1682650;85;21495;-54
2022/05/03 06:50:04;;;;;;;10.28;5.70;;;;;;;13.33;62.97;94374.00;1676812;83;21117;-54
2022/05/03 06:52:31;;;;;;;6.75;5.58;;;;;;;13.53;62.13;94362.47;1667759;83;21396;-55
2022/05/03 06:54:58;;;;;;;10.95;6.30;;;;;;;13.76;61.97;94364.38;1669723;84;20988;-55
2022/05/03 06:57:25;;;;;;;6.60;5.30;;;;;;;13.99;61.05;94361.39;1670083;84;21095;-54
2022/05/03 06:59:53;;;;;;;10.78;6.85;;;;;;;14.17;60.55;94361.95;1677852;84;20943;-55
2022/05/03 07:02:20;;;;;;;9.58;7.25;;;;;;;14.32;59.59;94363.34;1676023;84;21062;-54
2022/05/03 07:04:47;;;;;;;7.25;6.12;;;;;;;14.43;58.91;94351.17;1668702;84;20999;-54
2022/05/03 07:07:14;;;;;;;8.00;6.10;;;;;;;14.58;58.58;94361.59;1675877;84;21089;-56
2022/05/03 07:09:42;;;;;;;8.03;6.35;;;;;;;14.76;57.64;94353.64;1685364;84;21022;-55
2022/05/03 07:12:10;;;;;;;7.97;6.15;;;;;;;14.91;57.51;94355.13;1680373;84;21116;-55
2022/05/03 07:14:37;;;;;;;9.48;5.25;;;;;;;15.07;57.35;94351.80;1667366;84;21094;-54
2022/05/03 07:17:05;;;;;;;9.18;5.25;;;;;;;15.24;57.40;94340.91;1674364;84;21105;-55
2022/05/03 07:25:03;;;;;;;6.53;5.37;;;;;;;15.67;56.03;94344.04;1681056;84;21467;-54
2022/05/03 07:27:30;;;;;;;7.25;5.22;;;;;;;15.87;55.25;94339.20;1686401;84;21045;-54
2022/05/03 07:29:56;;;;;;;6.87;5.10;;;;;;;16.04;55.09;94338.73;1671385;84;20968;-53
2022/05/03 07:32:23;;;;;;;7.00;5.20;;;;;;;16.23;55.05;94339.12;1664263;84;21558;-53
2022/05/03 07:34:50;;;;;;;8.18;5.37;;;;;;;16.42;53.59;94338.30;1675434;84;21316;-56
2022/05/03 07:37:16;;;;;;;7.20;4.95;;;;;;;16.54;53.73;94337.87;1671458;84;21554;-56
2022/05/03 07:39:43;;;;;;;6.33;4.97;;;;;;;16.75;53.68;94328.15;1677286;84;21003;-55
2022/05/03 07:42:10;;;;;;;6.75;4.50;;;;;;;16.96;52.80;94332.94;1678285;83;21101;-56
2022/05/03 07:44:37;;;;;;;6.42;4.65;;;;;;;17.17;50.89;94328.74;1665989;84;20979;-55
2022/05/03 07:47:04;;;;;;;11.75;7.10;;;;;;;17.31;50.56;94322.97;1670197;84;22014;-56
2022/05/03 07:49:30;;;;;;;11.73;5.10;;;;;;;17.50;51.39;94327.50;1682437;84;21506;-54
2022/05/03 07:51:57;;;;;;;7.17;4.78;;;;;;;17.72;50.80;94324.15;1670416;84;21928;-56
2022/05/03 07:54:24;;;;;;;9.03;5.92;;;;;;;17.98;49.91;94325.33;1684954;83;21054;-56
2022/05/03 07:56:50;;;;;;;8.33;5.65;;;;;;;18.12;49.02;94320.13;1671072;83;21049;-55
2022/05/03 07:59:18;;;;;;;8.73;5.28;;;;;;;18.11;48.00;94324.17;1677030;84;21547;-56
2022/05/03 08:01:45;;;;;;;11.88;6.30;;;;;;;18.05;48.50;94319.25;1683764;83;21055;-55
2022/05/03 08:04:13;;;;;;;10.75;6.40;;;;;;;18.01;47.57;94318.74;1678899;83;32578;-57
2022/05/03 08:06:40;;;;;;;13.22;7.20;;;;;;;17.89;47.32;94329.73;1683768;83;20980;-57
2022/05/03 08:09:06;;;;;;;10.50;7.33;;;;;;;17.77;47.24;94325.40;1648365;87;21625;-56
2022/05/03 08:11:34;;;;;;;11.45;6.05;;;;;;;17.67;46.82;94325.52;1603344;88;21164;-55
2022/05/03 08:14:00;;;;;;;8.70;5.62;;;;;;;17.58;48.23;94330.69;1628991;86;21046;-55
2022/05/03 08:16:30;;;;;;;6.22;4.97;;;;;;;17.54;48.28;94330.80;1631156;86;21718;-58
2022/05/03 08:18:55;;;;;;;5.65;4.65;;;;;;;17.43;49.74;94337.08;1630342;86;21124;-55
2022/05/03 08:21:22;;;;;;;10.03;7.83;;;;;;;17.30;50.21;94341.56;1628507;86;21580;-56
2022/05/03 08:23:49;;;;;;;108.42;86.95;;;;;;;17.17;50.66;94330.13;1632207;87;21167;-55
2022/05/03 08:26:15;;;;;;;72.22;64.60;;;;;;;17.13;54.51;94337.95;1631340;87;21057;-54
2022/05/03 08:28:42;;;;;;;18.23;15.55;;;;;;;17.07;56.39;94335.14;1629265;86;21149;-57
2022/05/03 08:31:09;;;;;;;10.53;7.67;;;;;;;17.08;58.19;94339.44;1629908;87;21115;-55
2022/05/03 08:33:36;;;;;;;18.57;16.10;;;;;;;16.99;59.53;94332.72;1620995;86;21061;-54
2022/05/03 08:36:04;;;;;;;15.88;11.28;;;;;;;16.91;59.32;94329.52;1630493;87;22115;-54
2022/05/03 08:44:03;;;;;;;16.20;7.87;;;;;;;17.13;56.46;94335.17;1631317;86;21067;-56
2022/05/03 08:46:34;;;;;;;12.60;6.28;;;;;;;17.28;56.37;94335.74;1601580;87;21057;-59
2022/05/03 08:49:04;;;;;;;7.37;4.72;;;;;;;17.43;54.84;94339.13;1633411;86;21879;-57
2022/05/03 08:51:33;;;;;;;7.67;5.83;;;;;;;17.57;54.78;94342.30;1647798;85;21077;-56
2022/05/03 08:54:02;;;;;;;10.58;6.28;;;;;;;17.68;52.36;94338.91;1649362;85;21165;-56
2022/05/03 08:56:30;;;;;;;9.88;4.37;;;;;;;17.75;51.51;94333.49;1648113;85;21093;-55
2022/05/03 08:58:57;;;;;;;11.03;4.67;;;;;;;17.77;50.59;94331.73;1607021;87;21531;-57
2022/05/03 09:01:24;;;;;;;7.08;4.35;;;;;;;17.81;49.70;94333.64;1627692;86;21850;-57
2022/05/03 09:03:51;;;;;;;9.68;5.00;;;;;;;17.81;49.63;94328.07;1641984;86;22312;-55
2022/05/03 09:06:19;;;;;;;22.05;5.37;;;;;;;17.86;47.61;94332.13;1641831;86;21000;-58
2022/05/03 09:08:53;;;;;;;10.68;5.33;;;;;;;17.83;47.06;94331.75;1641320;86;21084;-54
2022/05/03 09:11:18;;;;;;;10.23;5.70;;;;;;;17.85;46.60;94329.22;1636945;85;21589;-56
2022/05/03 09:13:46;;;;;;;6.35;5.10;;;;;;;17.90;46.52;94328.46;1611136;87;22113;-56
2022/05/03 09:16:17;;;;;;;9.10;5.03;;;;;;;17.97;46.47;94332.16;1604692;87;21618;-55
2022/05/03 09:18:45;;;;;;;7.22;4.53;;;;;;;18.07;46.14;94333.42;1628964;86;21101;-57
2022/05/03 09:24:11;;;;;;;7.70;5.70;;;;;;;18.23;45.46;94332.02;1634944;86;21109;-54
2022/05/03 09:26:39;;;;;;;8.85;5.08;;;;;;;18.32;45.50;94326.98;1626239;87;21892;-57
2022/05/03 09:29:10;;;;;;;7.20;5.15;;;;;;;18.52;44.40;94326.75;1643311;86;21229;-56
2022/05/03 09:31:47;;;;;;;6.33;4.60;;;;;;;18.65;44.20;94315.81;1604375;89;21052;-56
2022/05/03 09:34:27;;;;;;;12.65;5.90;;;;;;;18.80;43.48;94316.95;1604408;88;21030;-55
2022/05/03 09:37:02;;;;;;;11.20;5.08;;;;;;;18.93;43.50;94316.52;1644219;86;21153;-56
2022/05/03 09:39:41;;;;;;;5.97;4.67;;;;;;;19.13;43.06;94313.41;1641408;86;21239;-55
2022/05/03 09:42:12;;;;;;;13.53;5.33;;;;;;;19.28;42.68;94309.72;1631883;87;21011;-55
2022/05/03 09:44:55;;;;;;;7.25;5.25;;;;;;;19.37;42.83;94306.61;1631347;86;21508;-53
2022/05/03 09:47:26;;;;;;;8.80;5.37;;;;;;;19.45;42.15;94306.84;1626213;87;21053;-55
2022/05/03 09:49:53;;;;;;;6.37;4.78;;;;;;;19.44;42.23;94308.88;1635411;87;21537;-56
2022/05/03 09:52:32;;;;;;;7.28;4.92;;;;;;;19.47;41.61;94309.24;1648882;86;21234;-56
2022/05/03 09:55:06;;;;;;;10.30;5.67;;;;;;;19.47;41.38;94306.45;1639919;86;21079;-55
2022/05/03 09:57:36;;;;;;;12.58;5.33;;;;;;;19.35;41.72;94307.03;1646469;86;21061;-55
2022/05/03 10:00:05;;;;;;;10.43;4.83;;;;;;;19.18;41.79;94311.27;1641291;86;22314;-55
2022/05/03 10:02:34;;;;;;;17.40;4.92;;;;;;;19.00;42.18;94306.87;1645512;86;21004;-54
2022/05/03 10:05:01;;;;;;;9.50;5.75;;;;;;;18.90;40.76;94305.01;1642254;86;21226;-55
2022/05/03 10:07:32;;;;;;;6.85;4.80;;;;;;;18.79;41.11;94305.02;1643717;86;21078;-55
2022/05/03 10:09:58;;;;;;;8.08;6.97;;;;;;;18.77;39.13;94295.64;1647355;86;21406;-56
2022/05/03 10:12:25;;;;;;;10.35;6.12;;;;;;;18.79;40.27;94304.28;1640649;86;21070;-57
2022/05/03 10:14:52;;;;;;;17.73;6.33;;;;;;;18.73;41.57;94294.53;1643888;86;21087;-54
2022/05/03 10:20:38;;;;;;;15.30;6.33;;;;;;;18.26;45.60;94299.01;1624728;85;21533;-55
2022/05/03 10:23:35;;;;;;;7.55;6.40;;;;;;;18.07;46.82;94291.66;1651637;85;21090;-55
2022/05/03 10:26:05;;;;;;;8.08;5.83;;;;;;;17.95;47.25;94291.52;1642473;85;21066;-53
2022/05/03 10:29:09;;;;;;;8.00;5.60;;;;;;;17.99;47.02;94294.19;1641032;85;21026;-55
2022/05/03 10:32:05;;;;;;;12.23;5.58;;;;;;;18.07;45.44;94281.91;1633418;86;22240;-56
2022/05/03 10:34:45;;;;;;;12.73;6.15;;;;;;;18.24;44.70;94284.19;1635560;86;21317;-54
2022/05/03 10:37:23;;;;;;;6.55;4.37;;;;;;;18.53;42.80;94285.08;1640554;86;21068;-57
2022/05/03 10:39:58;;;;;;;7.20;5.33;;;;;;;18.95;41.72;94273.55;1626932;86;21030;-54
2022/05/03 10:42:29;;;;;;;8.10;4.92;;;;;;;19.64;42.24;94273.63;1619334;86;21018;-53
2022/05/03 10:45:03;;;;;;;8.93;4.62;;;;;;;20.36;38.96;94264.10;1637438;86;21268;-54
2022/05/03 10:47:45;;;;;;;5.37;4.10;;;;;;;20.96;36.96;94259.95;1628072;86;21416;-57
2022/05/03 10:50:17;;;;;;;5.42;4.00;;;;;;;21.46;35.99;94260.83;1643304;86;21050;-54
2022/05/03 10:53:01;;;;;;;8.80;4.33;;;;;;;21.95;34.91;94253.03;1633127;85;22126;-56
2022/05/03 10:55:35;;;;;;;7.20;4.58;;;;;;;22.40;33.59;94251.81;1626375;86;21018;-56
2022/05/03 10:58:31;;;;;;;8.70;3.83;;;;;;;22.93;34.80;94250.59;1623521;86;21250;-57
2022/05/03 11:01:22;;;;;;;7.28;4.47;;;;;;;23.50;34.25;94251.11;1658027;85;21105;-56
2022/05/03 11:04:01;;;;;;;8.45;4.42;;;;;;;23.94;32.57;94247.37;1636011;86;21057;-57
2022/05/03 11:06:34;;;;;;;7.10;4.28;;;;;;;24.00;33.08;94250.16;1649295;85;21050;-58
2022/05/03 11:11:42;;;;;;;28.73;23.22;;;;;;;23.34;32.19;94247.37;1610385;86;21052;-58
2022/05/03 11:14:24;;;;;;;22.40;18.32;;;;;;;22.93;31.61;94246.38;1633040;86;21065;-57
2022/05/03 11:17:08;;;;;;;9.03;5.72;;;;;;;22.46;32.21;94249.69;1614528;87;21039;-56
2022/05/03 11:19:41;;;;;;;11.18;7.62;;;;;;;21.97;32.82;94244.84;1633820;86;21094;-54
2022/05/03 11:22:09;;;;;;;8.73;6.23;;;;;;;21.62;34.10;94250.08;1637299;86;21513;-55
2022/05/03 11:24:42;;;;;;;7.33;5.67;;;;;;;21.30;34.92;94259.66;1624023;86;21931;-55
2022/05/03 11:27:10;;;;;;;10.40;6.70;;;;;;;20.81;35.39;94256.77;1622204;86;21525;-55
2022/05/03 11:29:46;;;;;;;8.45;6.03;;;;;;;20.25;36.78;94257.20;1616157;86;21055;-57
2022/05/03 11:32:15;;;;;;;11.00;5.92;;;;;;;19.85;37.67;94249.63;1620616;86;21045;-56
2022/05/03 11:34:41;;;;;;;13.53;6.85;;;;;;;19.57;38.69;94252.49;1635425;86;21038;-55
2022/05/03 11:37:08;;;;;;;10.30;6.00;;;;;;;19.42;39.38;94246.49;1670428;85;21153;-54
2022/05/03 11:39:36;;;;;;;14.50;5.00;;;;;;;19.25;39.81;94245.20;1673673;85;21179;-55
2022/05/03 11:42:07;;;;;;;11.33;5.58;;;;;;;19.13;40.76;94244.31;1665731;85;21356;-54
2022/05/03 11:44:35;;;;;;;6.03;5.30;;;;;;;19.10;39.76;94249.53;1654968;85;21094;-53
2022/05/03 11:47:03;;;;;;;13.48;8.83;;;;;;;19.30;39.84;94240.22;1648684;85;21125;-56
2022/05/03 11:49:32;;;;;;;11.57;5.65;;;;;;;19.82;39.18;94240.13;1660682;85;21821;-55
2022/05/03 11:57:37;;;;;;;8.25;4.80;;;;;;;21.88;35.29;94253.66;1650380;85;21018;-55
2022/05/03 12:00:06;;;;;;;8.18;5.85;;;;;;;21.89;35.67;94251.73;1664672;85;21549;-56
2022/05/03 12:02:36;;;;;;;7.47;5.58;;;;;;;21.62;36.60;94247.91;1657843;85;21423;-54
2022/05/03 12:05:11;;;;;;;7.72;5.10;;;;;;;21.37;37.03;94246.45;1650479;85;21174;-57
2022/05/03 12:07:53;;;;;;;7.83;5.37;;;;;;;21.32;37.90;94247.30;1649763;85;21455;-53
2022/05/03 12:10:26;;;;;;;8.95;6.53;;;;;;;21.32;36.99;94241.04;1657917;85;21048;-56
2022/05/03 12:13:13;;;;;;;7.28;5.00;;;;;;;21.09;36.78;94246.06;1641644;85;21069;-56
2022/05/03 12:15:50;;;;;;;10.75;8.10;;;;;;;20.79;37.29;94248.16;1649535;85;21147;-54
2022/05/03 12:18:40;;;;;;;14.25;8.20;;;;;;;20.43;37.35;94255.13;1647923;85;20890;-55
2022/05/03 12:21:13;;;;;;;16.82;11.35;;;;;;;20.20;37.80;94251.03;1648114;85;21070;-54
2022/05/03 12:23:47;;;;;;;10.25;5.67;;;;;;;20.06;37.28;94245.17;1661687;85;21105;-53
2022/05/03 12:26:27;;;;;;;14.40;11.57;;;;;;;19.87;36.53;94247.08;1650778;85;21601;-55